sensor_id;sensor_type;location;lat;lon;timestamp;noise_LAeq;noise_LA_min;noise_LA_max;noise_LA01;noise_LA95
49568;Laerm;35474;51.032;6.998;2023-02-28T00:01:35;57.01;43.44;70.28;;
49568;Laerm;35474;51.032;6.998;2023-02-28T00:04:02;55.62;43.39;66.58;;
49568;Laerm;35474;51.032;6.998;2023-02-28T00:06:29;46.82;42.82;59.98;;
49568;Laerm;35474;51.032;6.998;2023-02-28T00:08:56;54.70;42.47;67.38;;
49568;Laerm;35474;51.032;6.998;2023-02-28T00:11:23;59.48;43.34;75.42;;
49568;Laerm;35474;51.032;6.998;2023-02-28T00:13:51;53.90;45.33;75.31;;
49568;Laerm;35474;51.032;6.998;2023-02-28T00:16:20;53.09;44.19;73.78;;
49568;Laerm;35474;51.032;6.998;2023-02-28T00:18:48;56.24;43.09;69.53;;
49568;Laerm;35474;51.032;6.998;2023-02-28T00:21:17;48.08;42.65;59.14;;
49568;Laerm;35474;51.032;6.998;2023-02-28T00:23:44;45.10;42.65;55.30;;
49568;Laerm;35474;51.032;6.998;2023-02-28T00:26:12;51.60;43.14;65.44;;
49568;Laerm;35474;51.032;6.998;2023-02-28T00:28:39;58.26;42.76;75.62;;
49568;Laerm;35474;51.032;6.998;2023-02-28T00:31:06;55.59;43.14;70.38;;
49568;Laerm;35474;51.032;6.998;2023-02-28T00:33:33;52.62;43.14;67.66;;
49568;Laerm;35474;51.032;6.998;2023-02-28T00:36:02;49.20;42.95;60.57;;
49568;Laerm;35474;51.032;6.998;2023-02-28T00:38:30;44.49;41.96;49.03;;
49568;Laerm;35474;51.032;6.998;2023-02-28T00:40:57;51.06;43.09;66.78;;
49568;Laerm;35474;51.032;6.998;2023-02-28T00:43:25;47.62;43.19;59.30;;
49568;Laerm;35474;51.032;6.998;2023-02-28T00:45:51;45.01;43.04;51.45;;
49568;Laerm;35474;51.032;6.998;2023-02-28T00:48:18;59.22;43.04;75.33;;
49568;Laerm;35474;51.032;6.998;2023-02-28T00:50:48;45.09;42.93;49.95;;
49568;Laerm;35474;51.032;6.998;2023-02-28T00:53:16;55.64;43.29;69.23;;
49568;Laerm;35474;51.032;6.998;2023-02-28T00:55:43;54.44;43.09;68.30;;
49568;Laerm;35474;51.032;6.998;2023-02-28T01:00:52;50.86;43.34;63.27;;
49568;Laerm;35474;51.032;6.998;2023-02-28T01:03:54;54.12;42.29;67.67;;
49568;Laerm;35474;51.032;6.998;2023-02-28T01:06:30;48.23;42.71;61.59;;
49568;Laerm;35474;51.032;6.998;2023-02-28T01:09:07;52.50;41.96;66.88;;
49568;Laerm;35474;51.032;6.998;2023-02-28T01:12:08;49.71;43.29;64.20;;
49568;Laerm;35474;51.032;6.998;2023-02-28T01:14:47;44.92;42.93;53.21;;
49568;Laerm;35474;51.032;6.998;2023-02-28T01:17:23;46.17;42.59;56.31;;
49568;Laerm;35474;51.032;6.998;2023-02-28T01:19:53;51.38;43.58;63.62;;
49568;Laerm;35474;51.032;6.998;2023-02-28T01:22:24;54.97;43.49;67.03;;
49568;Laerm;35474;51.032;6.998;2023-02-28T01:24:51;45.24;43.14;49.79;;
49568;Laerm;35474;51.032;6.998;2023-02-28T01:27:27;55.46;43.81;71.21;;
49568;Laerm;35474;51.032;6.998;2023-02-28T01:30:07;46.13;43.09;51.77;;
49568;Laerm;35474;51.032;6.998;2023-02-28T01:32:50;53.44;43.28;66.10;;
49568;Laerm;35474;51.032;6.998;2023-02-28T01:35:28;45.56;43.49;53.65;;
49568;Laerm;35474;51.032;6.998;2023-02-28T01:38:25;45.49;42.76;55.24;;
49568;Laerm;35474;51.032;6.998;2023-02-28T01:50:29;49.04;42.88;62.84;;
49568;Laerm;35474;51.032;6.998;2023-02-28T01:53:07;44.90;42.29;55.12;;
49568;Laerm;35474;51.032;6.998;2023-02-28T01:55:50;44.55;42.16;57.51;;
49568;Laerm;35474;51.032;6.998;2023-02-28T01:58:24;45.64;42.98;53.64;;
49568;Laerm;35474;51.032;6.998;2023-02-28T02:00:51;45.15;42.65;58.85;;
49568;Laerm;35474;51.032;6.998;2023-02-28T02:03:35;45.86;43.49;55.01;;
49568;Laerm;35474;51.032;6.998;2023-02-28T02:06:19;52.20;42.09;67.12;;
49568;Laerm;35474;51.032;6.998;2023-02-28T02:09:04;44.11;42.22;46.55;;
49568;Laerm;35474;51.032;6.998;2023-02-28T02:11:34;48.00;43.34;67.06;;
49568;Laerm;35474;51.032;6.998;2023-02-28T02:17:49;48.70;42.82;66.09;;
49568;Laerm;35474;51.032;6.998;2023-02-28T02:42:16;44.97;42.29;51.39;;
49568;Laerm;35474;51.032;6.998;2023-02-28T02:48:23;53.36;42.88;67.54;;
49568;Laerm;35474;51.032;6.998;2023-02-28T02:51:21;53.95;42.98;67.11;;
49568;Laerm;35474;51.032;6.998;2023-02-28T02:58:03;48.22;42.71;62.51;;
49568;Laerm;35474;51.032;6.998;2023-02-28T03:00:58;55.95;42.59;72.47;;
49568;Laerm;35474;51.032;6.998;2023-02-28T03:04:04;44.35;42.09;47.59;;
49568;Laerm;35474;51.032;6.998;2023-02-28T03:06:47;43.79;42.03;54.17;;
49568;Laerm;35474;51.032;6.998;2023-02-28T03:09:25;52.06;41.96;66.66;;
49568;Laerm;35474;51.032;6.998;2023-02-28T03:11:56;56.22;41.89;68.16;;
49568;Laerm;35474;51.032;6.998;2023-02-28T03:20:25;58.38;41.89;68.04;;
49568;Laerm;35474;51.032;6.998;2023-02-28T03:26:41;58.62;43.34;70.23;;
49568;Laerm;35474;51.032;6.998;2023-02-28T03:29:40;56.70;43.19;69.21;;
49568;Laerm;35474;51.032;6.998;2023-02-28T03:32:29;51.79;43.44;67.40;;
49568;Laerm;35474;51.032;6.998;2023-02-28T03:35:21;53.03;43.77;67.18;;
49568;Laerm;35474;51.032;6.998;2023-02-28T03:38:05;57.11;43.81;70.02;;
49568;Laerm;35474;51.032;6.998;2023-02-28T03:40:48;52.91;44.11;66.85;;
49568;Laerm;35474;51.032;6.998;2023-02-28T03:43:24;54.71;43.54;69.58;;
49568;Laerm;35474;51.032;6.998;2023-02-28T03:46:07;50.97;44.69;64.57;;
49568;Laerm;35474;51.032;6.998;2023-02-28T03:51:53;50.73;43.86;65.72;;
49568;Laerm;35474;51.032;6.998;2023-02-28T03:54:32;60.10;44.62;71.09;;
49568;Laerm;35474;51.032;6.998;2023-02-28T04:00:21;54.93;43.99;69.62;;
49568;Laerm;35474;51.032;6.998;2023-02-28T04:02:57;60.55;45.04;71.76;;
49568;Laerm;35474;51.032;6.998;2023-02-28T04:08:48;63.26;46.50;72.86;;
49568;Laerm;35474;51.032;6.998;2023-02-28T04:11:37;60.66;44.76;69.68;;
49568;Laerm;35474;51.032;6.998;2023-02-28T04:16:45;58.26;45.23;67.49;;
49568;Laerm;35474;51.032;6.998;2023-02-28T04:22:14;61.20;45.54;69.79;;
49568;Laerm;35474;51.032;6.998;2023-02-28T04:24:56;62.71;50.56;74.24;;
49568;Laerm;35474;51.032;6.998;2023-02-28T04:27:53;60.90;46.45;75.37;;
49568;Laerm;35474;51.032;6.998;2023-02-28T04:30:45;64.46;47.91;74.54;;
49568;Laerm;35474;51.032;6.998;2023-02-28T04:33:23;62.10;46.20;72.17;;
49568;Laerm;35474;51.032;6.998;2023-02-28T04:36:01;63.73;47.52;75.69;;
49568;Laerm;35474;51.032;6.998;2023-02-28T04:39:01;62.45;46.30;71.26;;
49568;Laerm;35474;51.032;6.998;2023-02-28T04:41:43;62.55;46.64;71.77;;
49568;Laerm;35474;51.032;6.998;2023-02-28T04:44:44;63.74;47.14;77.33;;
49568;Laerm;35474;51.032;6.998;2023-02-28T04:47:27;63.44;45.91;72.03;;
49568;Laerm;35474;51.032;6.998;2023-02-28T04:50:05;62.32;46.30;76.88;;
49568;Laerm;35474;51.032;6.998;2023-02-28T04:53:07;63.66;50.07;71.63;;
49568;Laerm;35474;51.032;6.998;2023-02-28T04:55:48;61.02;46.71;72.17;;
49568;Laerm;35474;51.032;6.998;2023-02-28T05:02:10;61.14;45.99;72.30;;
49568;Laerm;35474;51.032;6.998;2023-02-28T05:04:45;63.36;46.40;71.68;;
49568;Laerm;35474;51.032;6.998;2023-02-28T05:10:07;60.92;45.83;69.98;;
49568;Laerm;35474;51.032;6.998;2023-02-28T05:12:55;62.77;48.66;71.28;;
49568;Laerm;35474;51.032;6.998;2023-02-28T05:16:00;64.18;45.72;73.84;;
49568;Laerm;35474;51.032;6.998;2023-02-28T05:19:01;64.80;50.21;71.49;;
49568;Laerm;35474;51.032;6.998;2023-02-28T05:21:53;64.00;46.59;74.10;;
49568;Laerm;35474;51.032;6.998;2023-02-28T05:24:23;64.01;47.81;74.05;;
49568;Laerm;35474;51.032;6.998;2023-02-28T05:26:54;64.66;52.15;72.19;;
49568;Laerm;35474;51.032;6.998;2023-02-28T05:30:07;64.70;48.61;72.72;;
49568;Laerm;35474;51.032;6.998;2023-02-28T05:36:21;64.39;50.47;72.36;;
49568;Laerm;35474;51.032;6.998;2023-02-28T05:39:05;66.86;52.58;75.55;;
49568;Laerm;35474;51.032;6.998;2023-02-28T05:41:57;65.68;49.29;72.64;;
49568;Laerm;35474;51.032;6.998;2023-02-28T05:44:30;65.11;52.04;71.12;;
49568;Laerm;35474;51.032;6.998;2023-02-28T05:47:01;63.18;49.77;70.73;;
49568;Laerm;35474;51.032;6.998;2023-02-28T05:49:29;65.89;51.17;76.42;;
49568;Laerm;35474;51.032;6.998;2023-02-28T05:52:05;65.47;47.06;74.08;;
49568;Laerm;35474;51.032;6.998;2023-02-28T05:54:33;67.92;55.83;78.89;;
49568;Laerm;35474;51.032;6.998;2023-02-28T05:57:02;66.19;49.53;81.58;;
49568;Laerm;35474;51.032;6.998;2023-02-28T05:59:52;64.88;48.58;82.49;;
49568;Laerm;35474;51.032;6.998;2023-02-28T06:05:20;65.50;49.69;82.56;;
49568;Laerm;35474;51.032;6.998;2023-02-28T06:07:49;65.47;49.79;76.99;;
49568;Laerm;35474;51.032;6.998;2023-02-28T06:10:19;65.43;47.38;72.79;;
49568;Laerm;35474;51.032;6.998;2023-02-28T06:12:48;66.96;51.03;72.69;;
49568;Laerm;35474;51.032;6.998;2023-02-28T06:15:21;67.44;48.05;84.85;;
49568;Laerm;35474;51.032;6.998;2023-02-28T06:17:54;65.98;48.16;76.09;;
49568;Laerm;35474;51.032;6.998;2023-02-28T06:20:27;66.22;50.03;75.64;;
49568;Laerm;35474;51.032;6.998;2023-02-28T06:23:11;67.25;48.29;84.76;;
49568;Laerm;35474;51.032;6.998;2023-02-28T06:25:49;65.70;49.66;72.81;;
49568;Laerm;35474;51.032;6.998;2023-02-28T06:28:20;66.45;53.18;75.47;;
49568;Laerm;35474;51.032;6.998;2023-02-28T06:30:58;64.26;51.54;72.81;;
49568;Laerm;35474;51.032;6.998;2023-02-28T06:33:50;66.55;54.55;81.24;;
49568;Laerm;35474;51.032;6.998;2023-02-28T06:36:50;65.89;46.10;75.63;;
49568;Laerm;35474;51.032;6.998;2023-02-28T06:39:40;65.53;47.68;73.20;;
49568;Laerm;35474;51.032;6.998;2023-02-28T06:42:29;66.68;57.32;72.57;;
49568;Laerm;35474;51.032;6.998;2023-02-28T06:45:01;64.76;52.60;71.89;;
49568;Laerm;35474;51.032;6.998;2023-02-28T06:47:30;64.22;55.17;71.60;;
49568;Laerm;35474;51.032;6.998;2023-02-28T06:50:00;66.48;57.71;84.16;;
49568;Laerm;35474;51.032;6.998;2023-02-28T06:52:27;65.30;53.49;81.41;;
49568;Laerm;35474;51.032;6.998;2023-02-28T06:54:54;66.34;55.81;74.11;;
49568;Laerm;35474;51.032;6.998;2023-02-28T06:57:31;66.24;51.01;73.96;;
49568;Laerm;35474;51.032;6.998;2023-02-28T06:59:59;64.77;53.39;80.24;;
49568;Laerm;35474;51.032;6.998;2023-02-28T07:02:27;62.96;52.57;75.21;;
49568;Laerm;35474;51.032;6.998;2023-02-28T07:04:53;64.87;51.06;72.01;;
49568;Laerm;35474;51.032;6.998;2023-02-28T07:07:21;65.70;51.84;73.73;;
49568;Laerm;35474;51.032;6.998;2023-02-28T07:09:51;65.40;48.46;74.83;;
49568;Laerm;35474;51.032;6.998;2023-02-28T07:12:18;66.80;56.07;73.40;;
49568;Laerm;35474;51.032;6.998;2023-02-28T07:14:44;65.73;50.16;72.18;;
49568;Laerm;35474;51.032;6.998;2023-02-28T07:17:11;66.63;54.98;73.82;;
49568;Laerm;35474;51.032;6.998;2023-02-28T07:19:39;66.86;50.84;74.28;;
49568;Laerm;35474;51.032;6.998;2023-02-28T07:22:06;67.54;56.37;79.64;;
49568;Laerm;35474;51.032;6.998;2023-02-28T07:24:33;64.49;45.57;74.61;;
49568;Laerm;35474;51.032;6.998;2023-02-28T07:26:59;66.22;54.08;73.96;;
49568;Laerm;35474;51.032;6.998;2023-02-28T07:32:34;65.08;50.35;73.08;;
49568;Laerm;35474;51.032;6.998;2023-02-28T07:35:07;65.79;48.40;71.74;;
49568;Laerm;35474;51.032;6.998;2023-02-28T07:37:35;66.63;54.72;74.05;;
49568;Laerm;35474;51.032;6.998;2023-02-28T07:40:08;65.04;53.76;79.15;;
49568;Laerm;35474;51.032;6.998;2023-02-28T07:42:39;65.86;46.20;72.13;;
49568;Laerm;35474;51.032;6.998;2023-02-28T07:45:06;65.96;53.72;72.72;;
49568;Laerm;35474;51.032;6.998;2023-02-28T07:47:32;66.57;47.55;77.56;;
49568;Laerm;35474;51.032;6.998;2023-02-28T07:49:59;65.61;51.62;81.69;;
49568;Laerm;35474;51.032;6.998;2023-02-28T07:52:26;66.68;57.41;77.73;;
49568;Laerm;35474;51.032;6.998;2023-02-28T07:54:54;67.63;48.10;85.30;;
49568;Laerm;35474;51.032;6.998;2023-02-28T07:57:21;66.95;46.15;78.45;;
49568;Laerm;35474;51.032;6.998;2023-02-28T07:59:48;64.19;55.16;73.83;;
49568;Laerm;35474;51.032;6.998;2023-02-28T08:02:16;66.07;54.49;74.03;;
49568;Laerm;35474;51.032;6.998;2023-02-28T08:04:44;63.98;49.80;73.93;;
49568;Laerm;35474;51.032;6.998;2023-02-28T08:07:17;65.69;53.91;74.07;;
49568;Laerm;35474;51.032;6.998;2023-02-28T08:09:46;67.34;52.33;85.50;;
49568;Laerm;35474;51.032;6.998;2023-02-28T08:12:13;66.57;47.46;83.03;;
49568;Laerm;35474;51.032;6.998;2023-02-28T08:14:41;66.53;52.15;83.99;;
49568;Laerm;35474;51.032;6.998;2023-02-28T08:17:07;68.68;52.18;88.35;;
49568;Laerm;35474;51.032;6.998;2023-02-28T08:19:37;64.84;53.94;73.61;;
49568;Laerm;35474;51.032;6.998;2023-02-28T08:22:03;68.77;49.70;86.67;;
49568;Laerm;35474;51.032;6.998;2023-02-28T08:24:30;64.55;49.70;76.75;;
49568;Laerm;35474;51.032;6.998;2023-02-28T08:26:56;65.09;45.01;77.26;;
49568;Laerm;35474;51.032;6.998;2023-02-28T08:29:23;65.49;53.24;73.02;;
49568;Laerm;35474;51.032;6.998;2023-02-28T08:31:50;67.27;57.77;84.33;;
49568;Laerm;35474;51.032;6.998;2023-02-28T08:34:17;66.45;49.71;82.80;;
49568;Laerm;35474;51.032;6.998;2023-02-28T08:36:44;69.80;47.77;90.04;;
49568;Laerm;35474;51.032;6.998;2023-02-28T08:39:17;68.47;49.00;91.74;;
49568;Laerm;35474;51.032;6.998;2023-02-28T08:41:44;72.43;50.85;92.66;;
49568;Laerm;35474;51.032;6.998;2023-02-28T08:44:12;66.39;53.27;83.38;;
49568;Laerm;35474;51.032;6.998;2023-02-28T08:46:39;68.05;57.28;79.77;;
49568;Laerm;35474;51.032;6.998;2023-02-28T08:49:05;66.64;55.25;73.82;;
49568;Laerm;35474;51.032;6.998;2023-02-28T08:51:33;66.15;49.58;78.31;;
49568;Laerm;35474;51.032;6.998;2023-02-28T08:54:00;68.49;47.83;85.35;;
49568;Laerm;35474;51.032;6.998;2023-02-28T08:56:27;64.79;46.18;74.51;;
49568;Laerm;35474;51.032;6.998;2023-02-28T08:58:56;68.44;53.38;87.51;;
49568;Laerm;35474;51.032;6.998;2023-02-28T09:01:25;69.68;52.29;87.70;;
49568;Laerm;35474;51.032;6.998;2023-02-28T09:03:55;64.24;45.54;71.52;;
49568;Laerm;35474;51.032;6.998;2023-02-28T09:06:26;65.60;50.08;76.39;;
49568;Laerm;35474;51.032;6.998;2023-02-28T09:08:56;65.61;52.41;74.08;;
49568;Laerm;35474;51.032;6.998;2023-02-28T09:11:25;67.22;44.73;88.76;;
49568;Laerm;35474;51.032;6.998;2023-02-28T09:13:51;67.33;56.10;81.30;;
49568;Laerm;35474;51.032;6.998;2023-02-28T09:16:18;70.90;48.32;91.73;;
49568;Laerm;35474;51.032;6.998;2023-02-28T09:18:48;66.28;56.85;78.60;;
49568;Laerm;35474;51.032;6.998;2023-02-28T09:21:16;68.26;57.09;89.37;;
49568;Laerm;35474;51.032;6.998;2023-02-28T09:23:45;65.48;51.04;76.46;;
49568;Laerm;35474;51.032;6.998;2023-02-28T09:26:22;66.32;54.63;89.53;;
49568;Laerm;35474;51.032;6.998;2023-02-28T09:28:50;66.12;53.40;73.83;;
49568;Laerm;35474;51.032;6.998;2023-02-28T09:31:21;66.03;51.77;84.45;;
49568;Laerm;35474;51.032;6.998;2023-02-28T09:33:49;66.74;56.91;79.30;;
49568;Laerm;35474;51.032;6.998;2023-02-28T09:36:16;66.44;47.95;79.04;;
49568;Laerm;35474;51.032;6.998;2023-02-28T09:38:43;74.01;53.12;93.28;;
49568;Laerm;35474;51.032;6.998;2023-02-28T09:41:14;73.36;53.41;94.99;;
49568;Laerm;35474;51.032;6.998;2023-02-28T09:43:45;73.16;50.44;93.03;;
49568;Laerm;35474;51.032;6.998;2023-02-28T09:46:38;74.17;50.18;93.86;;
49568;Laerm;35474;51.032;6.998;2023-02-28T09:49:14;72.25;48.34;88.44;;
49568;Laerm;35474;51.032;6.998;2023-02-28T09:54:16;66.79;56.07;79.06;;
49568;Laerm;35474;51.032;6.998;2023-02-28T09:56:49;73.00;46.25;92.98;;
49568;Laerm;35474;51.032;6.998;2023-02-28T09:59:29;65.53;51.87;74.44;;
49568;Laerm;35474;51.032;6.998;2023-02-28T10:02:17;67.46;53.07;85.55;;
49568;Laerm;35474;51.032;6.998;2023-02-28T10:04:53;66.76;48.18;85.40;;
49568;Laerm;35474;51.032;6.998;2023-02-28T10:12:55;67.75;48.85;78.96;;
49568;Laerm;35474;51.032;6.998;2023-02-28T10:15:25;77.54;57.50;101.13;;
49568;Laerm;35474;51.032;6.998;2023-02-28T10:17:57;69.42;53.10;91.00;;
49568;Laerm;35474;51.032;6.998;2023-02-28T10:20:37;66.67;47.95;85.24;;
49568;Laerm;35474;51.032;6.998;2023-02-28T10:25:44;67.62;52.31;85.69;;
49568;Laerm;35474;51.032;6.998;2023-02-28T10:28:16;74.36;47.55;95.29;;
49568;Laerm;35474;51.032;6.998;2023-02-28T10:30:49;66.15;47.72;84.67;;
49568;Laerm;35474;51.032;6.998;2023-02-28T10:33:30;71.95;46.80;91.73;;
49568;Laerm;35474;51.032;6.998;2023-02-28T10:35:57;69.50;55.81;86.27;;
49568;Laerm;35474;51.032;6.998;2023-02-28T10:41:26;65.43;48.43;78.90;;
49568;Laerm;35474;51.032;6.998;2023-02-28T10:44:21;69.73;49.08;86.75;;
49568;Laerm;35474;51.032;6.998;2023-02-28T10:46:50;70.18;53.22;89.03;;
49568;Laerm;35474;51.032;6.998;2023-02-28T10:49:22;73.92;57.19;98.95;;
49568;Laerm;35474;51.032;6.998;2023-02-28T10:51:54;74.32;54.22;94.21;;
49568;Laerm;35474;51.032;6.998;2023-02-28T10:54:31;70.66;50.00;86.59;;
49568;Laerm;35474;51.032;6.998;2023-02-28T10:57:20;72.40;50.09;91.68;;
49568;Laerm;35474;51.032;6.998;2023-02-28T10:59:52;74.45;46.63;93.14;;
49568;Laerm;35474;51.032;6.998;2023-02-28T11:02:36;73.08;47.22;95.39;;
49568;Laerm;35474;51.032;6.998;2023-02-28T11:05:34;67.22;45.42;83.30;;
49568;Laerm;35474;51.032;6.998;2023-02-28T11:08:14;69.98;51.14;92.56;;
49568;Laerm;35474;51.032;6.998;2023-02-28T11:10:47;70.49;49.88;89.01;;
49568;Laerm;35474;51.032;6.998;2023-02-28T11:13:19;77.41;50.54;96.41;;
49568;Laerm;35474;51.032;6.998;2023-02-28T11:15:58;70.43;49.16;88.49;;
49568;Laerm;35474;51.032;6.998;2023-02-28T11:20:58;75.76;49.20;93.02;;
49568;Laerm;35474;51.032;6.998;2023-02-28T11:23:27;67.52;47.91;86.85;;
49568;Laerm;35474;51.032;6.998;2023-02-28T11:25:59;68.01;48.54;89.32;;
49568;Laerm;35474;51.032;6.998;2023-02-28T11:28:34;66.00;44.43;82.59;;
49568;Laerm;35474;51.032;6.998;2023-02-28T11:33:50;67.40;53.92;82.88;;
49568;Laerm;35474;51.032;6.998;2023-02-28T11:36:23;80.28;53.63;97.60;;
49568;Laerm;35474;51.032;6.998;2023-02-28T11:38:55;71.07;48.46;95.89;;
49568;Laerm;35474;51.032;6.998;2023-02-28T11:47:17;65.72;44.51;88.29;;
49568;Laerm;35474;51.032;6.998;2023-02-28T11:52:59;69.10;53.55;86.74;;
49568;Laerm;35474;51.032;6.998;2023-02-28T11:55:42;74.69;53.86;96.46;;
49568;Laerm;35474;51.032;6.998;2023-02-28T11:58:27;79.54;52.54;102.81;;
49568;Laerm;35474;51.032;6.998;2023-02-28T12:01:09;68.99;52.11;86.57;;
49568;Laerm;35474;51.032;6.998;2023-02-28T12:06:36;66.14;52.85;76.85;;
49568;Laerm;35474;51.032;6.998;2023-02-28T12:11:56;70.94;49.34;92.80;;
49568;Laerm;35474;51.032;6.998;2023-02-28T12:14:57;66.34;47.12;82.51;;
49568;Laerm;35474;51.032;6.998;2023-02-28T12:18:00;66.23;45.83;77.93;;
49568;Laerm;35474;51.032;6.998;2023-02-28T12:20:42;67.76;46.90;93.91;;
49568;Laerm;35474;51.032;6.998;2023-02-28T12:23:41;66.48;48.07;85.60;;
49568;Laerm;35474;51.032;6.998;2023-02-28T12:28:53;65.70;52.21;83.85;;
49568;Laerm;35474;51.032;6.998;2023-02-28T12:31:35;72.58;52.06;96.60;;
49568;Laerm;35474;51.032;6.998;2023-02-28T12:34:10;67.77;46.38;88.45;;
49568;Laerm;35474;51.032;6.998;2023-02-28T12:36:41;69.51;53.45;87.87;;
49568;Laerm;35474;51.032;6.998;2023-02-28T12:39:16;74.30;51.97;89.56;;
49568;Laerm;35474;51.032;6.998;2023-02-28T12:41:49;71.74;50.86;88.81;;
49568;Laerm;35474;51.032;6.998;2023-02-28T12:44:23;65.87;53.02;77.32;;
49568;Laerm;35474;51.032;6.998;2023-02-28T12:46:55;67.53;50.67;82.73;;
49568;Laerm;35474;51.032;6.998;2023-02-28T12:49:34;72.78;48.31;90.32;;
49568;Laerm;35474;51.032;6.998;2023-02-28T12:52:06;70.88;52.90;87.25;;
49568;Laerm;35474;51.032;6.998;2023-02-28T12:54:45;71.46;51.93;89.54;;
49568;Laerm;35474;51.032;6.998;2023-02-28T13:00:18;67.59;51.22;90.52;;
49568;Laerm;35474;51.032;6.998;2023-02-28T13:10:51;68.56;56.34;83.40;;
49568;Laerm;35474;51.032;6.998;2023-02-28T13:13:25;68.53;55.26;85.16;;
49568;Laerm;35474;51.032;6.998;2023-02-28T13:15:59;68.13;57.64;82.52;;
49568;Laerm;35474;51.032;6.998;2023-02-28T13:21:07;67.91;57.03;85.82;;
49568;Laerm;35474;51.032;6.998;2023-02-28T13:26:07;77.94;54.54;97.18;;
49568;Laerm;35474;51.032;6.998;2023-02-28T13:28:58;65.31;51.70;81.92;;
49568;Laerm;35474;51.032;6.998;2023-02-28T13:31:32;67.55;57.67;82.51;;
49568;Laerm;35474;51.032;6.998;2023-02-28T13:34:13;69.94;57.01;89.90;;
49568;Laerm;35474;51.032;6.998;2023-02-28T13:36:40;67.39;53.75;80.65;;
49568;Laerm;35474;51.032;6.998;2023-02-28T13:42:23;69.69;54.40;91.64;;
49568;Laerm;35474;51.032;6.998;2023-02-28T13:56:19;67.13;49.04;81.65;;
49568;Laerm;35474;51.032;6.998;2023-02-28T13:59:21;67.62;51.77;82.14;;
49568;Laerm;35474;51.032;6.998;2023-02-28T14:02:00;69.10;47.90;84.77;;
49568;Laerm;35474;51.032;6.998;2023-02-28T14:04:48;76.34;55.91;92.99;;
49568;Laerm;35474;51.032;6.998;2023-02-28T14:07:19;67.79;47.22;90.19;;
49568;Laerm;35474;51.032;6.998;2023-02-28T14:10:00;65.02;50.97;77.03;;
49568;Laerm;35474;51.032;6.998;2023-02-28T14:15:40;66.92;56.38;73.92;;
49568;Laerm;35474;51.032;6.998;2023-02-28T14:18:18;66.90;50.65;83.98;;
49568;Laerm;35474;51.032;6.998;2023-02-28T14:20:47;69.62;51.13;92.94;;
49568;Laerm;35474;51.032;6.998;2023-02-28T14:26:37;64.13;45.48;73.03;;
49568;Laerm;35474;51.032;6.998;2023-02-28T14:29:47;65.04;48.26;74.40;;
49568;Laerm;35474;51.032;6.998;2023-02-28T14:35:22;70.36;48.25;86.35;;
49568;Laerm;35474;51.032;6.998;2023-02-28T14:37:54;78.26;53.38;96.91;;
49568;Laerm;35474;51.032;6.998;2023-02-28T14:40:27;66.02;45.51;78.62;;
49568;Laerm;35474;51.032;6.998;2023-02-28T14:43:02;67.60;58.44;75.88;;
49568;Laerm;35474;51.032;6.998;2023-02-28T14:45:32;78.90;54.20;98.40;;
49568;Laerm;35474;51.032;6.998;2023-02-28T14:48:00;66.49;56.76;73.24;;
49568;Laerm;35474;51.032;6.998;2023-02-28T14:50:31;68.11;51.10;81.03;;
49568;Laerm;35474;51.032;6.998;2023-02-28T14:52:58;66.22;49.47;71.41;;
49568;Laerm;35474;51.032;6.998;2023-02-28T14:55:30;68.69;57.29;85.20;;
49568;Laerm;35474;51.032;6.998;2023-02-28T14:58:20;65.22;54.35;78.30;;
49568;Laerm;35474;51.032;6.998;2023-02-28T15:00:50;65.72;51.84;75.83;;
49568;Laerm;35474;51.032;6.998;2023-02-28T15:06:00;67.77;46.50;84.14;;
49568;Laerm;35474;51.032;6.998;2023-02-28T15:08:27;68.26;57.33;84.25;;
49568;Laerm;35474;51.032;6.998;2023-02-28T15:10:58;71.87;56.74;88.36;;
49568;Laerm;35474;51.032;6.998;2023-02-28T15:13:43;67.81;44.31;86.27;;
49568;Laerm;35474;51.032;6.998;2023-02-28T15:16:20;66.90;54.05;80.90;;
49568;Laerm;35474;51.032;6.998;2023-02-28T15:18:51;71.42;58.05;88.97;;
49568;Laerm;35474;51.032;6.998;2023-02-28T15:21:24;68.78;51.25;88.12;;
49568;Laerm;35474;51.032;6.998;2023-02-28T15:23:55;67.70;49.57;80.73;;
49568;Laerm;35474;51.032;6.998;2023-02-28T15:27:11;65.36;46.33;73.35;;
49568;Laerm;35474;51.032;6.998;2023-02-28T15:56:47;65.84;46.97;78.58;;
49568;Laerm;35474;51.032;6.998;2023-02-28T15:59:33;73.53;52.04;96.85;;
49568;Laerm;35474;51.032;6.998;2023-02-28T16:09:34;66.64;55.24;81.06;;
49568;Laerm;35474;51.032;6.998;2023-02-28T16:12:38;66.29;52.06;72.74;;
49568;Laerm;35474;51.032;6.998;2023-02-28T16:15:16;64.44;49.65;76.90;;
49568;Laerm;35474;51.032;6.998;2023-02-28T16:17:43;65.89;49.49;76.40;;
49568;Laerm;35474;51.032;6.998;2023-02-28T16:20:16;65.27;46.38;73.55;;
49568;Laerm;35474;51.032;6.998;2023-02-28T16:22:43;65.68;46.80;72.99;;
49568;Laerm;35474;51.032;6.998;2023-02-28T16:25:14;65.26;53.51;71.97;;
49568;Laerm;35474;51.032;6.998;2023-02-28T16:27:43;66.64;52.55;75.49;;
49568;Laerm;35474;51.032;6.998;2023-02-28T16:30:23;66.83;53.63;74.50;;
49568;Laerm;35474;51.032;6.998;2023-02-28T16:32:53;65.42;47.44;72.78;;
49568;Laerm;35474;51.032;6.998;2023-02-28T16:35:21;65.64;56.38;82.78;;
49568;Laerm;35474;51.032;6.998;2023-02-28T16:37:48;64.93;48.87;73.79;;
49568;Laerm;35474;51.032;6.998;2023-02-28T16:40:18;65.50;54.54;72.08;;
49568;Laerm;35474;51.032;6.998;2023-02-28T16:42:49;64.36;45.04;76.08;;
49568;Laerm;35474;51.032;6.998;2023-02-28T16:45:27;65.93;51.16;76.49;;
49568;Laerm;35474;51.032;6.998;2023-02-28T16:47:54;66.74;53.69;72.06;;
49568;Laerm;35474;51.032;6.998;2023-02-28T16:50:27;65.83;49.30;72.00;;
49568;Laerm;35474;51.032;6.998;2023-02-28T16:52:55;66.52;59.91;75.16;;
49568;Laerm;35474;51.032;6.998;2023-02-28T16:55:23;64.30;50.56;73.50;;
49568;Laerm;35474;51.032;6.998;2023-02-28T16:57:52;64.60;46.15;70.61;;
49568;Laerm;35474;51.032;6.998;2023-02-28T17:00:19;66.62;47.02;78.46;;
49568;Laerm;35474;51.032;6.998;2023-02-28T17:02:48;66.40;50.54;72.11;;
49568;Laerm;35474;51.032;6.998;2023-02-28T17:05:16;65.70;52.61;72.63;;
49568;Laerm;35474;51.032;6.998;2023-02-28T17:07:45;65.62;50.98;74.48;;
49568;Laerm;35474;51.032;6.998;2023-02-28T17:10:19;65.84;48.90;70.72;;
49568;Laerm;35474;51.032;6.998;2023-02-28T17:12:46;66.23;52.70;74.29;;
49568;Laerm;35474;51.032;6.998;2023-02-28T17:15:14;65.62;53.57;71.56;;
49568;Laerm;35474;51.032;6.998;2023-02-28T17:17:45;65.67;51.89;72.47;;
49568;Laerm;35474;51.032;6.998;2023-02-28T17:20:21;66.75;54.87;72.24;;
49568;Laerm;35474;51.032;6.998;2023-02-28T17:22:50;65.21;48.87;71.13;;
49568;Laerm;35474;51.032;6.998;2023-02-28T17:25:20;65.69;49.59;72.49;;
49568;Laerm;35474;51.032;6.998;2023-02-28T17:27:46;63.79;53.04;73.40;;
49568;Laerm;35474;51.032;6.998;2023-02-28T17:30:15;66.04;55.17;74.04;;
49568;Laerm;35474;51.032;6.998;2023-02-28T17:32:43;65.47;47.20;74.91;;
49568;Laerm;35474;51.032;6.998;2023-02-28T17:35:10;64.67;56.19;71.74;;
49568;Laerm;35474;51.032;6.998;2023-02-28T17:37:40;64.82;51.93;70.75;;
49568;Laerm;35474;51.032;6.998;2023-02-28T17:40:17;65.59;52.31;90.02;;
49568;Laerm;35474;51.032;6.998;2023-02-28T17:42:44;64.26;47.68;70.68;;
49568;Laerm;35474;51.032;6.998;2023-02-28T17:45:12;63.70;49.08;71.19;;
49568;Laerm;35474;51.032;6.998;2023-02-28T17:47:39;64.13;44.87;72.13;;